createdAt,value
2023-02-22T00:00:53.174Z,98101.78
2023-02-22T00:02:11.668Z,98101.25
2023-02-22T00:03:26.213Z,98095.50
2023-02-22T00:04:29.301Z,98096.84
2023-02-22T00:05:32.372Z,98101.56
2023-02-22T00:06:35.662Z,98105.75
2023-02-22T00:07:39.025Z,98106.31
2023-02-22T00:08:43.384Z,98102.94
2023-02-22T00:09:46.527Z,98109.25
2023-02-22T00:10:51.841Z,98116.00
2023-02-22T00:11:55.153Z,98112.91
2023-02-22T00:12:58.329Z,98106.69
2023-02-22T00:14:02.807Z,98122.84
2023-02-22T00:15:06.031Z,98114.75
2023-02-22T00:16:09.212Z,98117.66
2023-02-22T00:17:14.026Z,98124.44
2023-02-22T00:18:19.764Z,98118.47
2023-02-22T00:19:22.960Z,98122.66
2023-02-22T00:20:26.253Z,98123.97
2023-02-22T00:21:31.516Z,98128.16
2023-02-22T00:22:34.830Z,98117.47
2023-02-22T00:23:40.179Z,98123.75
2023-02-22T00:24:43.181Z,98128.50
2023-02-22T00:25:51.704Z,98133.97
2023-02-22T00:26:57.333Z,98132.13
2023-02-22T00:28:00.863Z,98119.88
2023-02-22T00:29:05.028Z,98124.59
2023-02-22T00:30:09.758Z,98120.34
2023-02-22T00:31:15.789Z,98124.25
2023-02-22T00:32:19.615Z,98136.03
2023-02-22T00:33:23.907Z,98133.50
2023-02-22T00:34:27.075Z,98129.38
2023-02-22T00:35:31.427Z,98132.03
2023-02-22T00:36:34.908Z,98124.22
2023-02-22T00:37:42.323Z,98129.72
2023-02-22T00:38:46.989Z,98133.13
2023-02-22T00:39:51.218Z,98136.78
2023-02-22T00:40:56.000Z,98132.13
2023-02-22T00:42:01.963Z,98130.31
2023-02-22T00:43:06.626Z,98135.00
2023-02-22T00:44:09.651Z,98137.38
2023-02-22T00:45:14.771Z,98135.06
2023-02-22T00:46:18.033Z,98135.31
2023-02-22T00:47:21.255Z,98139.22
2023-02-22T00:48:26.404Z,98133.25
2023-02-22T00:49:29.624Z,98126.75
2023-02-22T00:50:34.124Z,98136.91
2023-02-22T00:51:37.472Z,98132.47
2023-02-22T00:52:40.769Z,98138.75
2023-02-22T00:53:43.880Z,98134.34
2023-02-22T00:54:47.036Z,98136.69
2023-02-22T00:55:50.765Z,98131.47
2023-02-22T00:56:54.709Z,98137.94
2023-02-22T00:57:58.883Z,98130.19
2023-02-22T00:59:02.345Z,98127.59
2023-02-22T01:00:12.927Z,98132.31
2023-02-22T01:01:16.599Z,98132.09
2023-02-22T01:02:20.016Z,98120.38
2023-02-22T01:03:23.391Z,98123.00
2023-02-22T01:04:26.798Z,98127.44
2023-02-22T01:05:31.011Z,98119.63
2023-02-22T01:06:34.545Z,98120.16
2023-02-22T01:07:37.654Z,98118.09
2023-02-22T01:08:45.286Z,98121.25
2023-02-22T01:09:48.562Z,98118.91
2023-02-22T01:10:52.896Z,98112.66
2023-02-22T01:11:57.213Z,98111.06
2023-02-22T01:13:01.705Z,98115.72
2023-02-22T01:14:04.746Z,98115.19
2023-02-22T01:15:12.340Z,98117.84
2023-02-22T01:16:15.634Z,98116.31
2023-02-22T01:17:18.741Z,98112.66
2023-02-22T01:18:23.748Z,98112.66
2023-02-22T01:19:27.428Z,98109.53
2023-02-22T01:20:30.511Z,98110.06
2023-02-22T01:21:33.565Z,98118.16
2023-02-22T01:22:37.831Z,98118.16
2023-02-22T01:23:40.942Z,98128.25
2023-02-22T01:24:44.145Z,98120.22
2023-02-22T01:25:47.481Z,98119.16
2023-02-22T01:26:53.072Z,98125.13
2023-02-22T01:27:57.665Z,98122.28
2023-02-22T01:29:01.305Z,98119.41
2023-02-22T01:30:08.849Z,98121.78
2023-02-22T01:31:12.923Z,98123.06
2023-02-22T01:32:16.253Z,98113.72
2023-02-22T01:33:19.509Z,98124.06
2023-02-22T01:34:24.024Z,98117.00
2023-02-22T01:35:30.826Z,98115.19
2023-02-22T01:36:33.741Z,98111.37
2023-02-22T01:37:37.027Z,98108.00
2023-02-22T01:38:42.706Z,98115.03
2023-02-22T01:39:46.189Z,98117.09
2023-02-22T01:40:51.750Z,98108.00
2023-02-22T01:41:55.345Z,98112.72
2023-02-22T01:43:02.092Z,98110.56
2023-02-22T01:44:34.467Z,98116.03
2023-02-22T01:46:08.683Z,98115.78
2023-02-22T01:47:11.952Z,98117.84
2023-02-22T01:48:44.888Z,98116.56
2023-02-22T01:49:51.377Z,98117.84
2023-02-22T01:50:59.766Z,98115.53
2023-02-22T01:52:06.849Z,98114.22
2023-02-22T01:53:14.693Z,98111.09
2023-02-22T01:54:27.019Z,98113.44
2023-02-22T01:55:31.304Z,98107.44
2023-02-22T01:56:38.653Z,98107.44
2023-02-22T01:57:41.738Z,98113.44
2023-02-22T01:58:50.952Z,98112.91
2023-02-22T01:59:58.419Z,98105.38
2023-02-22T02:01:01.605Z,98113.94
2023-02-22T02:02:05.521Z,98108.97
2023-02-22T02:03:15.386Z,98109.47
2023-02-22T02:04:25.842Z,98104.53
2023-02-22T02:05:32.223Z,98106.84
2023-02-22T02:06:37.880Z,98104.78
2023-02-22T02:07:41.697Z,98109.97
2023-02-22T02:09:00.085Z,98102.16
2023-02-22T02:10:15.766Z,98107.38
2023-02-22T02:11:25.857Z,98107.34
2023-02-22T02:12:33.577Z,98107.38
2023-02-22T02:13:37.121Z,98104.75
2023-02-22T02:14:42.292Z,98110.47
2023-02-22T02:15:46.192Z,98106.31
2023-02-22T02:16:52.235Z,98107.91
2023-02-22T02:17:57.454Z,98097.75
2023-02-22T02:19:00.986Z,98104.53
2023-02-22T02:20:20.943Z,98105.78
2023-02-22T02:21:50.169Z,98104.47
2023-02-22T02:23:24.736Z,98096.41
2023-02-22T02:24:59.066Z,98104.44
2023-02-22T02:26:43.691Z,98103.37
2023-02-22T02:27:54.714Z,98110.03
2023-02-22T02:29:07.403Z,98102.75
2023-02-22T02:30:21.918Z,98102.50
2023-02-22T02:32:02.785Z,98106.41
2023-02-22T02:33:17.030Z,98103.75
2023-02-22T02:34:24.641Z,98106.59
2023-02-22T02:35:57.825Z,98108.88
2023-02-22T02:37:29.145Z,98101.34
2023-02-22T02:38:58.234Z,98103.94
2023-02-22T02:40:12.824Z,98110.69
2023-02-22T02:41:22.367Z,98103.87
2023-02-22T02:42:34.102Z,98110.34
2023-02-22T02:44:18.768Z,98113.69
2023-02-22T02:45:33.950Z,98113.19
2023-02-22T02:46:56.580Z,98118.41
2023-02-22T02:48:02.754Z,98113.97
2023-02-22T02:49:17.261Z,98115.72
2023-02-22T02:50:35.673Z,98113.13
2023-02-22T02:51:44.664Z,98110.50
2023-02-22T02:52:49.660Z,98117.31
2023-02-22T02:53:54.026Z,98115.75
2023-02-22T02:54:58.472Z,98105.31
2023-02-22T02:56:01.653Z,98117.31
2023-02-22T02:57:05.215Z,98112.03
2023-02-22T02:58:09.027Z,98109.97
2023-02-22T02:59:28.944Z,98106.34
2023-02-22T03:00:39.659Z,98109.22
2023-02-22T03:01:54.755Z,98108.19
2023-02-22T03:03:11.692Z,98109.72
2023-02-22T03:04:36.528Z,98111.81
2023-02-22T03:06:02.164Z,98112.59
2023-02-22T03:07:34.402Z,98103.22
2023-02-22T03:09:05.125Z,98109.00
2023-02-22T03:10:39.307Z,98117.87
2023-02-22T03:12:08.501Z,98113.69
2023-02-22T03:13:29.304Z,98117.87
2023-02-22T03:14:42.531Z,98116.28
2023-02-22T03:16:03.070Z,98119.97
2023-02-22T03:17:16.387Z,98123.34
2023-02-22T03:18:50.421Z,98122.06
2023-02-22T03:20:05.299Z,98128.31
2023-02-22T03:21:18.476Z,98114.78
2023-02-22T03:22:28.520Z,98123.38
2023-02-22T03:23:54.627Z,98117.38
2023-02-22T03:25:07.427Z,98119.72
2023-02-22T03:26:15.252Z,98125.41
2023-02-22T03:27:35.010Z,98124.41
2023-02-22T03:28:41.583Z,98119.41
2023-02-22T03:29:46.215Z,98114.44
2023-02-22T03:30:58.969Z,98119.94
2023-02-22T03:32:05.396Z,98121.25
2023-02-22T03:33:20.664Z,98119.22
2023-02-22T03:34:28.636Z,98126.78
2023-02-22T03:35:36.018Z,98120.03
2023-02-22T03:36:49.107Z,98122.38
2023-02-22T03:37:57.489Z,98127.03
2023-02-22T03:39:04.562Z,98125.19
2023-02-22T03:40:14.361Z,98123.97
2023-02-22T03:41:24.352Z,98126.06
2023-02-22T03:42:34.307Z,98124.25
2023-02-22T03:43:45.306Z,98126.91
2023-02-22T03:44:50.552Z,98131.09
2023-02-22T03:45:54.780Z,98133.44
2023-02-22T03:47:02.392Z,98128.53
2023-02-22T03:48:21.153Z,98132.22
2023-02-22T03:49:47.262Z,98132.97
2023-02-22T03:50:51.419Z,98131.72
2023-02-22T03:51:54.972Z,98133.03
2023-02-22T03:53:01.128Z,98126.53
2023-02-22T03:54:05.037Z,98130.69
2023-02-22T03:55:11.417Z,98139.53
2023-02-22T03:56:23.271Z,98142.88
2023-02-22T03:57:30.329Z,98140.31
2023-02-22T03:58:37.003Z,98137.69
2023-02-22T03:59:41.075Z,98134.31
2023-02-22T04:00:44.895Z,98143.97
2023-02-22T04:01:48.024Z,98145.78
2023-02-22T04:02:51.577Z,98136.16
2023-02-22T04:03:54.649Z,98136.91
2023-02-22T04:04:57.903Z,98140.31
2023-02-22T04:06:00.960Z,98146.28
2023-02-22T04:07:04.395Z,98143.69
2023-02-22T04:08:08.045Z,98146.56
2023-02-22T04:09:11.422Z,98139.81
2023-02-22T04:10:17.266Z,98146.81
2023-02-22T04:11:22.564Z,98141.87
2023-02-22T04:12:25.707Z,98141.87
2023-02-22T04:13:29.442Z,98153.81
2023-02-22T04:14:32.533Z,98147.31
2023-02-22T04:15:35.667Z,98146.25
2023-02-22T04:16:38.772Z,98145.25
2023-02-22T04:17:42.207Z,98146.56
2023-02-22T04:18:46.794Z,98140.31
2023-02-22T04:19:50.106Z,98139.28
2023-02-22T04:20:53.475Z,98140.53
2023-02-22T04:21:58.088Z,98138.22
2023-02-22T04:23:01.759Z,98140.03
2023-02-22T04:24:05.156Z,98145.22
2023-02-22T04:25:09.131Z,98133.00
2023-02-22T04:26:12.526Z,98137.47
2023-02-22T04:27:16.191Z,98144.03
2023-02-22T04:28:19.822Z,98134.69
2023-02-22T04:29:23.189Z,98137.78
2023-02-22T04:30:28.597Z,98137.53
2023-02-22T04:31:34.248Z,98145.09
2023-02-22T04:32:38.599Z,98142.75
2023-02-22T04:33:41.567Z,98140.97
2023-02-22T04:34:44.639Z,98135.75
2023-02-22T04:35:47.635Z,98145.38
2023-02-22T04:36:50.945Z,98139.13
2023-02-22T04:37:54.038Z,98139.91
2023-02-22T04:38:57.103Z,98143.81
2023-02-22T04:40:00.806Z,98139.13
2023-02-22T04:41:03.915Z,98145.88
2023-02-22T04:42:07.352Z,98135.75
2023-02-22T04:43:10.594Z,98144.34
2023-02-22T04:44:14.462Z,98142.75
2023-02-22T04:45:17.853Z,98138.84
2023-02-22T04:46:20.981Z,98145.12
2023-02-22T04:47:24.290Z,98136.25
2023-02-22T04:48:28.206Z,98145.12
2023-02-22T04:49:31.900Z,98144.84
2023-02-22T04:50:35.324Z,98141.97
2023-02-22T04:51:38.537Z,98140.69
2023-02-22T04:52:41.763Z,98144.31
2023-02-22T04:53:44.983Z,98147.44
2023-02-22T04:54:48.134Z,98137.78
2023-02-22T04:55:51.320Z,98145.06
2023-02-22T04:56:54.848Z,98147.94
2023-02-22T04:57:58.568Z,98143.28
2023-02-22T04:59:03.366Z,98146.63
2023-02-22T05:00:07.523Z,98148.19
2023-02-22T05:01:16.936Z,98143.75
2023-02-22T05:02:20.698Z,98146.59
2023-02-22T05:03:23.799Z,98156.78
2023-02-22T05:04:27.486Z,98153.62
2023-02-22T05:05:30.733Z,98144.50
2023-02-22T05:06:34.267Z,98139.53
2023-02-22T05:07:38.003Z,98151.78
2023-02-22T05:08:41.147Z,98152.06
2023-02-22T05:09:44.651Z,98156.75
2023-02-22T05:10:47.781Z,98149.47
2023-02-22T05:11:50.937Z,98148.16
2023-02-22T05:12:54.131Z,98147.41
2023-02-22T05:13:57.052Z,98147.63
2023-02-22T05:15:00.044Z,98152.06
2023-02-22T05:16:04.230Z,98153.38
2023-02-22T05:17:07.479Z,98152.59
2023-02-22T05:18:10.615Z,98155.44
2023-02-22T05:19:14.258Z,98152.59
2023-02-22T05:20:30.398Z,98150.25
2023-02-22T05:21:36.105Z,98143.75
2023-02-22T05:22:39.242Z,98154.16
2023-02-22T05:23:42.493Z,98150.47
2023-02-22T05:24:45.695Z,98153.62
2023-02-22T05:25:48.776Z,98151.28
2023-02-22T05:26:53.558Z,98154.94
2023-02-22T05:28:08.610Z,98154.69
2023-02-22T05:29:12.902Z,98147.13
2023-02-22T05:30:16.767Z,98157.78
2023-02-22T05:31:24.862Z,98150.50
2023-02-22T05:32:28.344Z,98154.91
2023-02-22T05:33:31.649Z,98147.34
2023-02-22T05:34:34.887Z,98159.09
2023-02-22T05:35:38.333Z,98155.22
2023-02-22T05:36:41.733Z,98164.87
2023-02-22T05:37:45.261Z,98155.47
2023-02-22T05:38:49.670Z,98161.19
2023-02-22T05:39:53.024Z,98160.91
2023-02-22T05:40:57.268Z,98164.34
2023-02-22T05:42:00.460Z,98165.34
2023-02-22T05:43:03.994Z,98162.75
2023-02-22T05:44:07.239Z,98158.81
2023-02-22T05:45:14.040Z,98168.16
2023-02-22T05:46:17.202Z,98170.00
2023-02-22T05:47:20.489Z,98171.31
2023-02-22T05:48:24.991Z,98169.78
2023-02-22T05:49:28.288Z,98173.69
2023-02-22T05:50:33.388Z,98170.56
2023-02-22T05:51:36.672Z,98175.22
2023-02-22T05:52:39.932Z,98167.38
2023-02-22T05:53:42.921Z,98178.59
2023-02-22T05:54:46.286Z,98189.22
2023-02-22T05:55:49.428Z,98175.44
2023-02-22T05:56:52.658Z,98183.81
2023-02-22T05:57:55.863Z,98192.13
2023-02-22T05:58:59.955Z,98189.28
2023-02-22T06:00:05.609Z,98188.47
2023-02-22T06:01:09.418Z,98187.41
2023-02-22T06:02:12.761Z,98182.50
2023-02-22T06:03:16.423Z,98189.25
2023-02-22T06:04:20.461Z,98190.00
2023-02-22T06:05:23.762Z,98198.06
2023-02-22T06:06:26.843Z,98193.38
2023-02-22T06:07:30.080Z,98191.06
2023-02-22T06:08:34.081Z,98195.75
2023-02-22T06:09:37.392Z,98198.09
2023-02-22T06:10:40.770Z,98199.12
2023-02-22T06:11:44.048Z,98194.97
2023-02-22T06:12:48.866Z,98197.28
2023-02-22T06:13:53.531Z,98194.87
2023-02-22T06:14:56.586Z,98194.66
2023-02-22T06:16:00.118Z,98191.75
2023-02-22T06:17:03.732Z,98191.78
2023-02-22T06:18:07.024Z,98192.03
2023-02-22T06:19:11.590Z,98186.53
2023-02-22T06:20:17.704Z,98195.34
2023-02-22T06:21:21.375Z,98192.75
2023-02-22T06:22:24.352Z,98193.78
2023-02-22T06:23:27.929Z,98196.09
2023-02-22T06:24:31.006Z,98204.69
2023-02-22T06:25:34.222Z,98200.00
2023-02-22T06:26:37.144Z,98202.81
2023-02-22T06:27:41.735Z,98202.31
2023-02-22T06:28:47.317Z,98203.88
2023-02-22T06:29:50.322Z,98209.69
2023-02-22T06:30:53.419Z,98202.41
2023-02-22T06:31:57.011Z,98209.13
2023-02-22T06:33:00.110Z,98205.97
2023-02-22T06:34:03.545Z,98208.59
2023-02-22T06:35:07.095Z,98202.91
2023-02-22T06:36:10.804Z,98206.75
2023-02-22T06:37:13.809Z,98207.81
2023-02-22T06:38:25.696Z,98207.53
2023-02-22T06:39:29.137Z,98204.09
2023-02-22T06:40:32.372Z,98200.75
2023-02-22T06:41:38.481Z,98213.03
2023-02-22T06:42:41.943Z,98207.84
2023-02-22T06:43:47.799Z,98211.97
2023-02-22T06:44:53.604Z,98210.94
2023-02-22T06:45:56.717Z,98217.69
2023-02-22T06:47:00.167Z,98212.72
2023-02-22T06:48:03.533Z,98218.97
2023-02-22T06:49:09.431Z,98214.75
2023-02-22T06:50:35.531Z,98209.78
2023-02-22T06:51:39.015Z,98208.75
2023-02-22T06:52:45.312Z,98209.94
2023-02-22T06:53:48.391Z,98217.78
2023-02-22T06:54:52.184Z,98217.78
2023-02-22T06:55:55.812Z,98224.56
2023-02-22T06:56:58.967Z,98222.66
2023-02-22T06:58:03.631Z,98220.84
2023-02-22T06:59:07.072Z,98222.91
2023-02-22T07:00:11.378Z,98214.56
2023-02-22T07:01:14.753Z,98216.13
2023-02-22T07:02:18.015Z,98214.28
2023-02-22T07:03:21.484Z,98221.47
2023-02-22T07:04:24.858Z,98226.25
2023-02-22T07:05:28.627Z,98221.00
2023-02-22T07:06:31.957Z,98223.38
2023-02-22T07:07:35.004Z,98213.22
2023-02-22T07:08:38.429Z,98216.06
2023-02-22T07:09:43.809Z,98218.13
2023-02-22T07:10:50.764Z,98222.00
2023-02-22T07:11:53.861Z,98224.06
2023-02-22T07:12:56.912Z,98219.03
2023-02-22T07:13:59.999Z,98218.97
2023-02-22T07:15:02.971Z,98215.81
2023-02-22T07:16:06.284Z,98215.31
2023-02-22T07:17:09.552Z,98221.53
2023-02-22T07:18:14.266Z,98216.47
2023-02-22T07:19:17.311Z,98214.84
2023-02-22T07:20:21.725Z,98212.59
2023-02-22T07:21:25.056Z,98216.66
2023-02-22T07:22:28.389Z,98221.66
2023-02-22T07:23:31.767Z,98216.44
2023-02-22T07:24:35.392Z,98222.88
2023-02-22T07:25:38.554Z,98221.78
2023-02-22T07:26:42.931Z,98226.88
2023-02-22T07:27:46.936Z,98222.75
2023-02-22T07:28:50.282Z,98221.84
2023-02-22T07:29:53.617Z,98217.78
2023-02-22T07:30:56.755Z,98217.41
2023-02-22T07:31:59.993Z,98223.63
2023-02-22T07:33:08.869Z,98221.62
2023-02-22T07:34:13.494Z,98219.34
2023-02-22T07:35:18.707Z,98220.72
2023-02-22T07:36:21.828Z,98227.44
2023-02-22T07:37:24.872Z,98227.84
2023-02-22T07:38:29.038Z,98229.81
2023-02-22T07:39:32.373Z,98227.19
2023-02-22T07:40:36.681Z,98229.75
2023-02-22T07:41:39.848Z,98227.13
2023-02-22T07:42:56.970Z,98229.75
2023-02-22T07:43:59.947Z,98227.00
2023-02-22T07:45:03.077Z,98230.69
2023-02-22T07:46:06.225Z,98222.84
2023-02-22T07:47:13.128Z,98226.44
2023-02-22T07:48:17.809Z,98225.19
2023-02-22T07:49:21.927Z,98228.38
2023-02-22T07:50:26.680Z,98216.38
2023-02-22T07:51:29.939Z,98224.78
2023-02-22T07:52:33.220Z,98218.88
2023-02-22T07:53:37.021Z,98228.78
2023-02-22T07:54:40.181Z,98227.91
2023-02-22T07:55:43.980Z,98228.19
2023-02-22T07:56:50.349Z,98222.38
2023-02-22T07:57:56.577Z,98225.66
2023-02-22T07:59:01.218Z,98227.63
2023-02-22T08:00:05.223Z,98231.56
2023-02-22T08:01:08.964Z,98224.09
2023-02-22T08:02:17.797Z,98223.22
2023-02-22T08:03:24.761Z,98220.53
2023-02-22T08:04:27.770Z,98225.44
2023-02-22T08:05:34.784Z,98221.94
2023-02-22T08:06:38.158Z,98229.59
2023-02-22T08:07:41.508Z,98226.38
2023-02-22T08:08:45.991Z,98231.69
2023-02-22T08:09:49.135Z,98232.47
2023-02-22T08:10:53.336Z,98226.81
2023-02-22T08:11:56.544Z,98227.47
2023-02-22T08:13:00.081Z,98231.34
2023-02-22T08:14:03.161Z,98232.97
2023-02-22T08:15:08.944Z,98229.22
2023-02-22T08:16:12.261Z,98225.31
2023-02-22T08:17:15.274Z,98230.31
2023-02-22T08:18:20.117Z,98231.09
2023-02-22T08:19:23.247Z,98229.22
2023-02-22T08:20:26.443Z,98221.78
2023-02-22T08:21:30.581Z,98225.22
2023-02-22T08:22:33.793Z,98219.84
2023-02-22T08:23:37.085Z,98220.16
2023-02-22T08:24:40.880Z,98212.91
2023-02-22T08:25:44.185Z,98215.22
2023-02-22T08:26:48.072Z,98219.47
2023-02-22T08:27:51.825Z,98216.38
2023-02-22T08:28:55.073Z,98210.09
2023-02-22T08:29:58.200Z,98221.81
2023-02-22T08:31:01.355Z,98213.50
2023-02-22T08:32:05.092Z,98218.19
2023-02-22T08:33:08.448Z,98212.44
2023-02-22T08:34:11.567Z,98215.63
2023-02-22T08:35:16.407Z,98220.19
2023-02-22T08:36:19.483Z,98222.75
2023-02-22T08:37:23.042Z,98221.56
2023-02-22T08:38:30.074Z,98219.66
2023-02-22T08:39:33.302Z,98222.94
2023-02-22T08:40:38.288Z,98217.97
2023-02-22T08:41:41.428Z,98218.19
2023-02-22T08:42:45.037Z,98215.75
2023-02-22T08:43:48.292Z,98221.75
2023-02-22T08:44:54.128Z,98218.37
2023-02-22T08:45:57.933Z,98219.00
2023-02-22T08:47:01.075Z,98222.56
2023-02-22T08:48:04.542Z,98224.41
2023-02-22T08:49:09.189Z,98226.25
2023-02-22T08:50:19.331Z,98223.44
2023-02-22T08:51:22.777Z,98220.16
2023-02-22T08:52:26.182Z,98219.66
2023-02-22T08:53:33.221Z,98224.19
2023-02-22T08:54:36.417Z,98227.78
2023-02-22T08:55:40.755Z,98217.78
2023-02-22T08:56:44.322Z,98217.31
2023-02-22T08:57:47.758Z,98223.47
2023-02-22T08:58:50.915Z,98223.19
2023-02-22T08:59:54.429Z,98220.09
2023-02-22T09:00:58.205Z,98214.81
2023-02-22T09:02:03.363Z,98220.41
2023-02-22T09:03:15.206Z,98218.22
2023-02-22T09:04:18.743Z,98211.59
2023-02-22T09:05:24.362Z,98216.66
2023-02-22T09:06:27.328Z,98219.13
2023-02-22T09:07:30.319Z,98216.34
2023-02-22T09:08:33.728Z,98219.50
2023-02-22T09:09:37.214Z,98214.00
2023-02-22T09:10:40.893Z,98217.75
2023-02-22T09:11:44.306Z,98215.56
2023-02-22T09:12:47.659Z,98214.62
2023-02-22T09:13:50.863Z,98225.19
2023-02-22T09:14:53.922Z,98220.25
2023-02-22T09:15:57.068Z,98223.38
2023-02-22T09:17:00.717Z,98211.47
2023-02-22T09:18:06.396Z,98215.34
2023-02-22T09:19:10.479Z,98218.75
2023-02-22T09:20:15.091Z,98210.16
2023-02-22T09:21:18.674Z,98214.09
2023-02-22T09:22:22.127Z,98209.09
2023-02-22T09:23:26.362Z,98213.59
2023-02-22T09:24:29.642Z,98214.88
2023-02-22T09:25:34.716Z,98216.28
2023-02-22T09:26:43.016Z,98211.69
2023-02-22T09:27:51.982Z,98214.03
2023-02-22T09:28:55.140Z,98216.22
2023-02-22T09:29:58.871Z,98218.06
2023-02-22T09:31:02.036Z,98222.53
2023-02-22T09:32:06.015Z,98220.84
2023-02-22T09:33:18.926Z,98215.06
2023-02-22T09:34:29.964Z,98212.91
2023-02-22T09:35:36.589Z,98219.09
2023-02-22T09:36:44.351Z,98211.97
2023-02-22T09:37:47.481Z,98216.00
2023-02-22T09:38:53.878Z,98212.91
2023-02-22T09:39:57.106Z,98215.88
2023-02-22T09:41:55.520Z,98209.50
2023-02-22T09:43:32.976Z,98219.06
2023-02-22T09:44:54.087Z,98211.16
2023-02-22T09:46:13.875Z,98209.94
2023-02-22T09:47:33.905Z,98214.25
2023-02-22T09:48:51.375Z,98207.44
2023-02-22T09:50:02.865Z,98207.63
2023-02-22T09:51:18.205Z,98204.25
2023-02-22T09:52:28.165Z,98207.16
2023-02-22T09:53:37.382Z,98201.28
2023-02-22T09:54:45.394Z,98208.13
2023-02-22T09:55:53.225Z,98195.72
2023-02-22T09:56:58.898Z,98205.78
2023-02-22T09:58:13.840Z,98199.59
2023-02-22T09:59:24.854Z,98201.87
2023-02-22T10:00:41.078Z,98200.50
2023-02-22T10:01:48.916Z,98199.03
2023-02-22T10:03:10.576Z,98204.13
2023-02-22T10:04:22.466Z,98202.56
2023-02-22T10:05:34.080Z,98209.19
2023-02-22T10:06:40.009Z,98201.87
2023-02-22T10:07:54.599Z,98199.56
2023-02-22T10:09:08.007Z,98204.66
2023-02-22T10:10:19.995Z,98193.50
2023-02-22T10:11:48.965Z,98200.19
2023-02-22T10:13:06.459Z,98196.63
2023-02-22T10:14:31.349Z,98204.84
2023-02-22T10:16:06.653Z,98201.25
2023-02-22T10:17:20.501Z,98200.75
2023-02-22T10:18:48.657Z,98206.53
2023-02-22T10:20:00.800Z,98208.00
2023-02-22T10:21:31.196Z,98213.47
2023-02-22T10:22:40.428Z,98207.44
2023-02-22T10:24:04.876Z,98204.16
2023-02-22T10:25:19.531Z,98209.75
2023-02-22T10:26:37.015Z,98207.28
2023-02-22T10:28:03.970Z,98205.25
2023-02-22T10:29:17.864Z,98208.53
2023-02-22T10:30:34.663Z,98204.28
2023-02-22T10:31:47.422Z,98202.41
2023-02-22T10:33:17.791Z,98209.31
2023-02-22T10:34:31.401Z,98206.44
2023-02-22T10:35:38.103Z,98201.38
2023-02-22T10:36:44.197Z,98199.44
2023-02-22T10:37:48.489Z,98204.97
2023-02-22T10:38:57.942Z,98209.22
2023-02-22T10:40:14.590Z,98203.00
2023-02-22T10:41:37.428Z,98201.69
2023-02-22T10:42:40.567Z,98203.06
2023-02-22T10:43:44.835Z,98205.78
2023-02-22T10:44:48.124Z,98190.00
2023-02-22T10:45:56.316Z,98196.31
2023-02-22T10:47:03.267Z,98197.56
2023-02-22T10:48:15.612Z,98193.69
2023-02-22T10:49:24.114Z,98198.81
2023-02-22T10:50:29.934Z,98194.87
2023-02-22T10:51:34.499Z,98185.75
2023-02-22T10:52:37.840Z,98188.78
2023-02-22T10:53:41.222Z,98190.34
2023-02-22T10:54:48.518Z,98182.62
2023-02-22T10:56:15.452Z,98188.06
2023-02-22T10:57:32.468Z,98185.69
2023-02-22T10:58:54.309Z,98182.81
2023-02-22T10:59:58.110Z,98183.94
2023-02-22T11:01:17.947Z,98183.12
2023-02-22T11:02:27.951Z,98182.81
2023-02-22T11:03:31.142Z,98171.19
2023-02-22T11:04:52.247Z,98179.66
2023-02-22T11:05:55.394Z,98173.53
2023-02-22T11:07:01.491Z,98173.59
2023-02-22T11:08:28.299Z,98172.25
2023-02-22T11:09:31.676Z,98173.94
2023-02-22T11:10:39.276Z,98184.09
2023-02-22T11:11:46.224Z,98177.16
2023-02-22T11:12:51.395Z,98174.34
2023-02-22T11:13:55.845Z,98174.09
2023-02-22T11:15:24.601Z,98175.44
2023-02-22T11:16:41.234Z,98168.28
2023-02-22T11:17:46.934Z,98174.91
2023-02-22T11:18:50.426Z,98173.09
2023-02-22T11:19:53.728Z,98173.44
2023-02-22T11:21:02.390Z,98162.69
2023-02-22T11:22:05.633Z,98179.03
2023-02-22T11:23:09.087Z,98171.13
2023-02-22T11:24:15.709Z,98166.88
2023-02-22T11:25:23.224Z,98173.53
2023-02-22T11:26:26.451Z,98174.03
2023-02-22T11:27:44.091Z,98170.56
2023-02-22T11:28:51.181Z,98167.31
2023-02-22T11:29:59.643Z,98164.56
2023-02-22T11:31:16.297Z,98162.94
2023-02-22T11:32:22.676Z,98162.38
2023-02-22T11:33:29.644Z,98157.78
2023-02-22T11:34:37.259Z,98161.12
2023-02-22T11:35:54.282Z,98166.13
2023-02-22T11:37:15.845Z,98157.94
2023-02-22T11:38:21.397Z,98158.59
2023-02-22T11:39:32.665Z,98158.84
2023-02-22T11:40:35.705Z,98157.09
2023-02-22T11:41:38.721Z,98156.94
2023-02-22T11:42:42.082Z,98161.25
2023-02-22T11:43:48.401Z,98168.25
2023-02-22T11:45:10.088Z,98159.06
2023-02-22T11:46:26.609Z,98160.19
2023-02-22T11:47:31.870Z,98160.03
2023-02-22T11:48:39.774Z,98163.38
2023-02-22T11:49:46.035Z,98156.97
2023-02-22T11:51:14.473Z,98158.72
2023-02-22T11:52:41.520Z,98162.34
2023-02-22T11:53:57.697Z,98161.81
2023-02-22T11:55:42.141Z,98161.25
2023-02-22T11:56:50.614Z,98167.31
2023-02-22T11:58:14.697Z,98155.72
2023-02-22T11:59:42.189Z,98156.09
2023-02-22T12:01:12.107Z,98156.78
2023-02-22T12:02:15.355Z,98151.97
2023-02-22T12:03:34.696Z,98152.88
2023-02-22T12:05:12.330Z,98159.06
2023-02-22T12:06:28.071Z,98148.75
2023-02-22T12:07:50.923Z,98156.13
2023-02-22T12:09:07.433Z,98153.78
2023-02-22T12:10:40.479Z,98151.38
2023-02-22T12:11:46.511Z,98154.28
2023-02-22T12:13:17.356Z,98142.97
2023-02-22T12:14:32.479Z,98147.19
2023-02-22T12:15:56.697Z,98145.59
2023-02-22T12:17:31.042Z,98142.38
2023-02-22T12:18:50.828Z,98139.66
2023-02-22T12:20:10.469Z,98132.09
2023-02-22T12:21:20.730Z,98134.63
2023-02-22T12:22:28.901Z,98136.59
2023-02-22T12:23:45.102Z,98141.69
2023-02-22T12:25:14.870Z,98134.94
2023-02-22T12:26:38.133Z,98137.81
2023-02-22T12:27:50.531Z,98143.44
2023-02-22T12:28:53.733Z,98140.63
2023-02-22T12:30:07.145Z,98142.38
2023-02-22T12:32:03.359Z,98142.34
2023-02-22T12:33:26.339Z,98134.00
2023-02-22T12:34:36.735Z,98137.88
2023-02-22T12:35:51.087Z,98134.25
2023-02-22T12:36:59.888Z,98134.53
2023-02-22T12:38:31.473Z,98138.66
2023-02-22T12:39:58.437Z,98134.00
2023-02-22T12:41:06.233Z,98131.03
2023-02-22T12:42:17.064Z,98138.53
2023-02-22T12:43:24.785Z,98128.97
2023-02-22T12:44:38.967Z,98132.38
2023-02-22T12:46:18.227Z,98129.94
2023-02-22T12:47:28.109Z,98129.41
2023-02-22T12:48:40.857Z,98131.38
2023-02-22T12:50:00.540Z,98127.22
2023-02-22T12:51:22.175Z,98130.50
2023-02-22T12:52:46.905Z,98122.28
2023-02-22T12:54:13.591Z,98122.09
2023-02-22T12:55:29.031Z,98129.12
2023-02-22T12:56:42.172Z,98122.44
2023-02-22T12:57:48.016Z,98117.25
2023-02-22T12:59:03.653Z,98119.69
2023-02-22T13:00:28.896Z,98124.41
2023-02-22T13:01:40.490Z,98115.88
2023-02-22T13:02:54.613Z,98116.41
2023-02-22T13:03:57.486Z,98118.84
2023-02-22T13:05:02.201Z,98118.84
2023-02-22T13:06:13.331Z,98121.00
2023-02-22T13:07:37.142Z,98118.37
2023-02-22T13:09:06.188Z,98119.28
2023-02-22T13:10:26.604Z,98115.84
2023-02-22T13:11:48.296Z,98111.28
2023-02-22T13:12:57.662Z,98108.03
2023-02-22T13:14:19.035Z,98119.59
2023-02-22T13:15:28.024Z,98119.03
2023-02-22T13:16:52.932Z,98115.53
2023-02-22T13:18:41.179Z,98121.00
2023-02-22T13:20:08.049Z,98119.94
2023-02-22T13:21:51.583Z,98115.16
2023-02-22T13:23:25.555Z,98118.75
2023-02-22T13:25:02.283Z,98113.88
2023-02-22T13:26:08.230Z,98116.13
2023-02-22T13:27:24.194Z,98119.44